createdAt,value
2019-03-19T00:00:39.874Z,0.00
2019-03-19T00:01:39.882Z,0.00
2019-03-19T00:02:39.924Z,0.00
2019-03-19T00:03:39.855Z,0.00
2019-03-19T00:04:39.842Z,0.00
2019-03-19T00:05:39.811Z,0.00
2019-03-19T00:06:39.802Z,0.00
2019-03-19T00:07:39.816Z,0.00
2019-03-19T00:08:39.839Z,0.00
2019-03-19T00:09:39.787Z,0.00
2019-03-19T00:10:39.770Z,0.00
2019-03-19T00:11:39.756Z,0.00
2019-03-19T00:12:39.745Z,0.00
2019-03-19T00:13:39.745Z,0.00
2019-03-19T00:14:39.764Z,0.00
2019-03-19T00:15:39.719Z,0.00
2019-03-19T00:16:39.692Z,0.00
2019-03-19T00:17:39.695Z,0.00
2019-03-19T00:18:39.680Z,0.00
2019-03-19T00:19:39.697Z,0.00
2019-03-19T00:20:39.694Z,0.00
2019-03-19T00:21:39.643Z,0.00
2019-03-19T00:22:39.634Z,0.00
2019-03-19T00:23:39.672Z,0.00
2019-03-19T00:24:39.723Z,0.00
2019-03-19T00:25:39.598Z,0.00
2019-03-19T00:26:39.587Z,0.00
2019-03-19T00:27:39.588Z,0.00
2019-03-19T00:28:39.564Z,0.00
2019-03-19T00:29:39.574Z,0.00
2019-03-19T00:30:39.550Z,0.00
2019-03-19T00:31:39.533Z,0.00
2019-03-19T00:32:39.521Z,0.00
2019-03-19T00:33:39.521Z,0.00
2019-03-19T00:34:39.521Z,0.00
2019-03-19T00:35:39.490Z,0.00
2019-03-19T00:36:39.491Z,0.00
2019-03-19T00:37:39.470Z,0.00
2019-03-19T00:38:39.471Z,0.00
2019-03-19T00:39:39.479Z,0.00
2019-03-19T00:40:39.441Z,0.00
2019-03-19T00:41:39.464Z,0.00
2019-03-19T00:42:39.431Z,0.00
2019-03-19T00:43:39.406Z,0.00
2019-03-19T00:44:39.413Z,0.00
2019-03-19T00:45:39.381Z,0.00
2019-03-19T00:46:39.682Z,0.00
2019-03-19T00:47:39.375Z,0.00
2019-03-19T00:48:39.355Z,0.00
2019-03-19T00:49:39.394Z,0.00
2019-03-19T00:50:39.328Z,0.00
2019-03-19T00:51:39.322Z,0.00
2019-03-19T00:52:39.306Z,0.00
2019-03-19T00:53:39.299Z,0.00
2019-03-19T00:54:39.331Z,0.00
2019-03-19T00:55:41.044Z,0.00
2019-03-19T00:56:39.265Z,0.00
2019-03-19T00:57:39.314Z,0.00
2019-03-19T00:58:39.243Z,0.00
2019-03-19T00:59:39.266Z,0.00
2019-03-19T01:00:39.230Z,0.00
2019-03-19T01:01:39.233Z,0.00
2019-03-19T01:02:39.215Z,0.00
2019-03-19T01:03:39.193Z,0.00
2019-03-19T01:04:39.210Z,0.00
2019-03-19T01:05:39.167Z,0.00
2019-03-19T01:06:39.168Z,0.00
2019-03-19T01:07:39.145Z,0.00
2019-03-19T01:08:39.138Z,0.00
2019-03-19T01:09:39.145Z,0.00
2019-03-19T01:10:39.113Z,0.00
2019-03-19T01:11:39.110Z,0.00
2019-03-19T01:12:39.098Z,0.00
2019-03-19T01:13:39.085Z,0.00
2019-03-19T01:14:39.087Z,0.00
2019-03-19T01:15:39.067Z,0.00
2019-03-19T01:16:39.047Z,0.00
2019-03-19T01:17:39.059Z,0.00
2019-03-19T01:18:39.035Z,0.00
2019-03-19T01:19:39.041Z,0.00
2019-03-19T01:20:39.009Z,0.00
2019-03-19T01:21:39.000Z,0.00
2019-03-19T01:22:38.981Z,0.00
2019-03-19T01:23:38.985Z,0.00
2019-03-19T01:24:38.982Z,0.00
2019-03-19T01:25:39.606Z,0.00
2019-03-19T01:26:38.938Z,0.00
2019-03-19T01:27:38.928Z,0.00
2019-03-19T01:28:38.925Z,0.00
2019-03-19T01:29:38.935Z,0.00
2019-03-19T01:30:38.895Z,0.00
2019-03-19T01:31:38.886Z,0.00
2019-03-19T01:32:38.874Z,0.00
2019-03-19T01:33:38.869Z,0.00
2019-03-19T01:34:38.873Z,0.00
2019-03-19T01:35:38.854Z,0.00
2019-03-19T01:36:38.831Z,0.00
2019-03-19T01:37:38.821Z,0.00
2019-03-19T01:38:38.808Z,0.00
2019-03-19T01:39:38.817Z,0.00
2019-03-19T01:40:38.787Z,0.00
2019-03-19T01:41:38.791Z,0.00
2019-03-19T01:42:38.764Z,0.00
2019-03-19T01:43:38.757Z,0.00
2019-03-19T01:44:38.774Z,0.00
2019-03-19T01:45:38.732Z,0.00
2019-03-19T01:46:38.727Z,0.00
2019-03-19T01:47:38.745Z,0.00
2019-03-19T01:48:38.698Z,0.00
2019-03-19T01:49:38.709Z,0.00
2019-03-19T01:50:38.679Z,0.00
2019-03-19T01:51:38.666Z,0.00
2019-03-19T01:52:38.659Z,0.00
2019-03-19T01:53:38.670Z,0.00
2019-03-19T01:54:38.683Z,0.00
2019-03-19T01:55:38.633Z,0.00
2019-03-19T01:56:38.621Z,0.00
2019-03-19T01:57:38.603Z,0.00
2019-03-19T01:58:38.597Z,0.00
2019-03-19T01:59:38.590Z,0.00
2019-03-19T02:00:38.590Z,0.00
2019-03-19T02:01:38.557Z,0.00
2019-03-19T02:02:38.548Z,0.00
2019-03-19T02:03:38.537Z,0.00
2019-03-19T02:04:38.525Z,0.00
2019-03-19T02:05:38.552Z,0.00
2019-03-19T02:06:38.506Z,0.00
2019-03-19T02:07:38.496Z,0.00
2019-03-19T02:08:38.482Z,0.00
2019-03-19T02:09:38.471Z,0.00
2019-03-19T02:10:38.485Z,0.00
2019-03-19T02:11:38.680Z,0.00
2019-03-19T02:12:38.440Z,0.00
2019-03-19T02:13:38.429Z,0.00
2019-03-19T02:14:38.417Z,0.00
2019-03-19T02:15:38.429Z,0.00
2019-03-19T02:16:38.398Z,0.00
2019-03-19T02:17:38.403Z,0.00
2019-03-19T02:18:38.374Z,0.00
2019-03-19T02:19:38.365Z,0.00
2019-03-19T02:20:38.377Z,0.00
2019-03-19T02:21:38.341Z,0.00
2019-03-19T02:22:38.332Z,0.00
2019-03-19T02:23:38.340Z,0.00
2019-03-19T02:24:38.308Z,0.00
2019-03-19T02:25:38.321Z,0.00
2019-03-19T02:26:38.286Z,0.00
2019-03-19T02:27:38.278Z,0.00
2019-03-19T02:28:38.264Z,0.00
2019-03-19T02:29:38.276Z,0.00
2019-03-19T02:30:38.270Z,0.00
2019-03-19T02:31:38.234Z,0.00
2019-03-19T02:32:38.227Z,0.00
2019-03-19T02:33:38.250Z,0.00
2019-03-19T02:34:38.207Z,0.00
2019-03-19T02:35:38.252Z,0.00
2019-03-19T02:36:38.186Z,0.00
2019-03-19T02:37:38.181Z,0.00
2019-03-19T02:38:38.157Z,0.00
2019-03-19T02:39:38.159Z,0.00
2019-03-19T02:40:38.169Z,0.00
2019-03-19T02:41:38.125Z,0.00
2019-03-19T02:42:38.113Z,0.00
2019-03-19T02:43:38.126Z,0.00
2019-03-19T02:44:38.092Z,0.00
2019-03-19T02:45:38.110Z,0.00
2019-03-19T02:46:38.070Z,0.00
2019-03-19T02:47:38.060Z,0.00
2019-03-19T02:48:38.052Z,0.00
2019-03-19T02:49:38.064Z,0.00
2019-03-19T02:50:38.071Z,0.00
2019-03-19T02:51:38.025Z,0.00
2019-03-19T02:52:38.007Z,0.00
2019-03-19T02:53:37.996Z,0.00
2019-03-19T02:54:37.985Z,0.00
2019-03-19T02:55:38.010Z,0.00
2019-03-19T02:56:37.967Z,0.00
2019-03-19T02:57:37.960Z,0.00
2019-03-19T02:58:37.944Z,0.00
2019-03-19T02:59:37.949Z,0.00
2019-03-19T03:00:37.943Z,0.00
2019-03-19T03:01:37.910Z,0.00
2019-03-19T03:02:37.904Z,0.00
2019-03-19T03:03:37.895Z,0.00
2019-03-19T03:04:37.883Z,0.00
2019-03-19T03:05:37.888Z,0.00
2019-03-19T03:06:37.863Z,0.00
2019-03-19T03:07:37.850Z,0.00
2019-03-19T03:08:37.844Z,0.00
2019-03-19T03:09:37.865Z,0.00
2019-03-19T03:10:37.837Z,0.00
2019-03-19T03:11:37.809Z,0.00
2019-03-19T03:12:37.797Z,0.00
2019-03-19T03:13:37.791Z,0.00
2019-03-19T03:14:37.776Z,0.00
2019-03-19T03:15:37.791Z,0.00
2019-03-19T03:16:37.771Z,0.00
2019-03-19T03:17:37.751Z,0.00
2019-03-19T03:18:37.735Z,0.00
2019-03-19T03:19:37.734Z,0.00
2019-03-19T03:20:37.732Z,0.00
2019-03-19T03:21:37.706Z,0.00
2019-03-19T03:22:37.691Z,0.00
2019-03-19T03:23:37.715Z,0.00
2019-03-19T03:24:37.670Z,0.00
2019-03-19T03:25:37.687Z,0.00
2019-03-19T03:26:47.629Z,0.00
2019-03-19T03:27:38.647Z,0.00
2019-03-19T03:28:37.629Z,0.00
2019-03-19T03:29:37.618Z,0.00
2019-03-19T03:30:37.629Z,0.00
2019-03-19T03:31:37.600Z,0.00
2019-03-19T03:32:37.598Z,0.00
2019-03-19T03:33:37.597Z,0.00
2019-03-19T03:34:37.564Z,0.00
2019-03-19T03:35:37.572Z,0.00
2019-03-19T03:36:37.545Z,0.00
2019-03-19T03:37:37.533Z,0.00
2019-03-19T03:38:37.518Z,0.00
2019-03-19T03:39:37.520Z,0.00
2019-03-19T03:40:37.519Z,0.00
2019-03-19T03:41:37.500Z,0.00
2019-03-19T03:42:37.481Z,0.00
2019-03-19T03:43:37.474Z,0.00
2019-03-19T03:44:37.457Z,0.00
2019-03-19T03:45:37.489Z,0.00
2019-03-19T03:46:37.437Z,0.00
2019-03-19T03:47:37.430Z,0.00
2019-03-19T03:48:37.415Z,0.00
2019-03-19T03:49:37.411Z,0.00
2019-03-19T03:50:37.415Z,0.00
2019-03-19T03:51:37.390Z,0.00
2019-03-19T03:52:37.372Z,0.00
2019-03-19T03:53:37.362Z,0.00
2019-03-19T03:54:37.403Z,0.00
2019-03-19T03:55:37.377Z,0.00
2019-03-19T03:56:37.334Z,0.00
2019-03-19T03:57:37.328Z,0.00
2019-03-19T03:58:37.306Z,0.00
2019-03-19T03:59:37.299Z,0.00
2019-03-19T04:00:37.309Z,0.00
2019-03-19T04:01:37.280Z,0.00
2019-03-19T04:02:37.267Z,0.00
2019-03-19T04:03:37.262Z,0.00
2019-03-19T04:04:37.245Z,0.00
2019-03-19T04:05:37.256Z,0.00
2019-03-19T04:06:37.240Z,0.00
2019-03-19T04:07:37.214Z,0.00
2019-03-19T04:08:37.206Z,0.00
2019-03-19T04:09:37.194Z,0.00
2019-03-19T04:10:37.208Z,0.00
2019-03-19T04:11:37.173Z,0.00
2019-03-19T04:12:37.165Z,0.00
2019-03-19T04:13:37.150Z,0.00
2019-03-19T04:14:37.137Z,0.00
2019-03-19T04:15:37.171Z,0.00
2019-03-19T04:16:37.132Z,0.00
2019-03-19T04:17:37.110Z,0.00
2019-03-19T04:18:37.103Z,0.00
2019-03-19T04:19:37.103Z,0.00
2019-03-19T04:20:37.081Z,0.00
2019-03-19T04:21:37.090Z,0.00
2019-03-19T04:22:37.061Z,0.00
2019-03-19T04:23:37.047Z,0.00
2019-03-19T04:24:37.039Z,0.00
2019-03-19T04:25:37.024Z,0.00
2019-03-19T04:26:37.032Z,0.00
2019-03-19T04:27:40.106Z,0.00
2019-03-19T04:28:37.020Z,0.00
2019-03-19T04:29:36.983Z,0.00
2019-03-19T04:30:36.974Z,0.00
2019-03-19T04:31:36.983Z,0.00
2019-03-19T04:32:36.948Z,0.00
2019-03-19T04:33:36.940Z,0.00
2019-03-19T04:34:36.942Z,0.00
2019-03-19T04:35:36.921Z,0.00
2019-03-19T04:36:36.925Z,0.00
2019-03-19T04:37:36.898Z,0.00
2019-03-19T04:38:36.886Z,0.00
2019-03-19T04:39:36.876Z,0.00
2019-03-19T04:40:36.878Z,0.00
2019-03-19T04:41:36.874Z,0.00
2019-03-19T04:42:36.858Z,0.00
2019-03-19T04:43:36.844Z,0.00
2019-03-19T04:44:36.903Z,0.00
2019-03-19T04:45:36.813Z,0.00
2019-03-19T04:46:36.825Z,0.00
2019-03-19T04:47:36.794Z,0.00
2019-03-19T04:48:36.782Z,0.00
2019-03-19T04:49:36.773Z,0.00
2019-03-19T04:50:36.769Z,0.00
2019-03-19T04:51:36.770Z,0.00
2019-03-19T04:52:36.742Z,0.00
2019-03-19T04:53:36.738Z,0.00
2019-03-19T04:54:36.718Z,0.00
2019-03-19T04:55:36.708Z,0.00
2019-03-19T04:56:36.716Z,0.00
2019-03-19T04:57:36.687Z,0.00
2019-03-19T04:58:36.696Z,0.00
2019-03-19T04:59:36.669Z,0.00
2019-03-19T05:00:36.655Z,0.00
2019-03-19T05:01:36.669Z,0.00
2019-03-19T05:02:36.639Z,0.00
2019-03-19T05:03:36.625Z,0.00
2019-03-19T05:04:36.630Z,0.00
2019-03-19T05:05:36.605Z,0.00
2019-03-19T05:06:36.626Z,0.00
2019-03-19T05:07:36.584Z,0.00
2019-03-19T05:08:36.574Z,0.00
2019-03-19T05:09:36.563Z,0.00
2019-03-19T05:10:36.549Z,0.00
2019-03-19T05:11:36.561Z,0.00
2019-03-19T05:12:36.539Z,0.00
2019-03-19T05:13:36.525Z,0.00
2019-03-19T05:14:36.511Z,0.00
2019-03-19T05:15:36.497Z,0.00
2019-03-19T05:16:36.521Z,0.00
2019-03-19T05:17:36.484Z,0.00
2019-03-19T05:18:36.469Z,0.00
2019-03-19T05:19:36.458Z,0.00
2019-03-19T05:20:36.455Z,0.00
2019-03-19T05:21:36.453Z,0.00
2019-03-19T05:22:36.423Z,0.00
2019-03-19T05:23:36.416Z,0.00
2019-03-19T05:24:36.406Z,0.00
2019-03-19T05:25:36.397Z,0.00
2019-03-19T05:26:36.408Z,0.00
2019-03-19T05:27:37.632Z,0.00
2019-03-19T05:28:36.360Z,0.00
2019-03-19T05:29:36.351Z,0.00
2019-03-19T05:30:36.371Z,0.00
2019-03-19T05:31:36.353Z,0.00
2019-03-19T05:32:36.399Z,0.00
2019-03-19T05:33:36.312Z,0.00
2019-03-19T05:34:36.299Z,0.00
2019-03-19T05:35:36.288Z,0.00
2019-03-19T05:36:36.294Z,0.00
2019-03-19T05:37:36.267Z,0.00
2019-03-19T05:38:36.263Z,0.00
2019-03-19T05:39:36.258Z,0.00
2019-03-19T05:40:36.238Z,0.00
2019-03-19T05:41:36.269Z,0.00
2019-03-19T05:42:36.216Z,0.00
2019-03-19T05:43:36.206Z,5.62
2019-03-19T05:44:36.193Z,5.62
2019-03-19T05:45:36.193Z,5.62
2019-03-19T05:46:36.204Z,5.62
2019-03-19T05:47:38.162Z,5.62
2019-03-19T05:48:36.151Z,5.62
2019-03-19T05:49:36.141Z,5.62
2019-03-19T05:50:36.130Z,5.62
2019-03-19T05:51:36.141Z,5.62
2019-03-19T05:52:36.121Z,5.62
2019-03-19T05:53:36.097Z,11.25
2019-03-19T05:54:36.149Z,11.25
2019-03-19T05:55:36.082Z,11.25
2019-03-19T05:56:36.086Z,11.25
2019-03-19T05:57:36.057Z,11.25
2019-03-19T05:58:36.047Z,11.25
2019-03-19T05:59:36.037Z,11.25
2019-03-19T06:00:36.038Z,16.88
2019-03-19T06:01:36.079Z,16.88
2019-03-19T06:02:36.006Z,16.88
2019-03-19T06:03:35.992Z,16.88
2019-03-19T06:04:36.027Z,16.88
2019-03-19T06:05:35.972Z,16.88
2019-03-19T06:06:35.964Z,16.88
2019-03-19T06:07:35.980Z,22.50
2019-03-19T06:08:35.941Z,22.50
2019-03-19T06:09:35.979Z,22.50
2019-03-19T06:10:35.919Z,22.50
2019-03-19T06:11:35.918Z,22.50
2019-03-19T06:12:35.921Z,22.50
2019-03-19T06:13:35.885Z,22.50
2019-03-19T06:14:35.908Z,28.12
2019-03-19T06:15:35.870Z,28.12
2019-03-19T06:16:35.856Z,28.12
2019-03-19T06:17:35.929Z,28.12
2019-03-19T06:18:35.841Z,28.12
2019-03-19T06:19:35.823Z,28.12
2019-03-19T06:20:35.812Z,33.75
2019-03-19T06:21:35.806Z,33.75
2019-03-19T06:22:35.814Z,33.75
2019-03-19T06:23:35.786Z,33.75
2019-03-19T06:24:35.791Z,33.75
2019-03-19T06:25:35.761Z,33.75
2019-03-19T06:26:35.770Z,33.75
2019-03-19T06:27:35.762Z,39.38
2019-03-19T06:28:35.798Z,39.38
2019-03-19T06:29:35.723Z,39.38
2019-03-19T06:30:35.707Z,45.00
2019-03-19T06:31:35.694Z,45.00
2019-03-19T06:32:35.704Z,45.00
2019-03-19T06:33:35.685Z,45.00
2019-03-19T06:34:35.666Z,45.00
2019-03-19T06:35:35.653Z,45.00
2019-03-19T06:36:35.643Z,50.62
2019-03-19T06:37:35.651Z,50.62
2019-03-19T06:38:35.633Z,50.62
2019-03-19T06:39:35.629Z,50.62
2019-03-19T06:40:35.599Z,50.62
2019-03-19T06:41:35.589Z,50.62
2019-03-19T06:42:35.601Z,50.62
2019-03-19T06:43:35.565Z,50.62
2019-03-19T06:44:35.555Z,56.25
2019-03-19T06:45:35.553Z,56.25
2019-03-19T06:46:35.533Z,56.25
2019-03-19T06:47:35.543Z,56.25
2019-03-19T06:48:35.513Z,56.25
2019-03-19T06:49:35.502Z,61.88
2019-03-19T06:50:44.613Z,56.25
2019-03-19T06:51:36.486Z,61.88
2019-03-19T06:52:35.495Z,56.25
2019-03-19T06:53:35.458Z,61.88
2019-03-19T06:54:35.450Z,61.88
2019-03-19T06:55:35.436Z,61.88
2019-03-19T06:56:35.430Z,61.88
2019-03-19T06:57:39.411Z,61.88
2019-03-19T06:58:35.432Z,61.88
2019-03-19T06:59:35.397Z,61.88
2019-03-19T07:00:35.391Z,67.50
2019-03-19T07:01:35.387Z,67.50
2019-03-19T07:02:35.382Z,73.12
2019-03-19T07:03:35.356Z,73.12
2019-03-19T07:04:35.361Z,73.12
2019-03-19T07:05:35.329Z,78.75
2019-03-19T07:06:35.318Z,78.75
2019-03-19T07:07:35.328Z,78.75
2019-03-19T07:08:35.298Z,84.38
2019-03-19T07:09:35.296Z,84.38
2019-03-19T07:10:35.280Z,90.00
2019-03-19T07:11:35.267Z,90.00
2019-03-19T07:12:35.278Z,90.00
2019-03-19T07:13:35.243Z,90.00
2019-03-19T07:14:35.233Z,90.00
2019-03-19T07:15:35.227Z,90.00
2019-03-19T07:16:35.215Z,95.62
2019-03-19T07:17:35.221Z,95.62
2019-03-19T07:18:35.202Z,95.62
2019-03-19T07:19:35.177Z,95.62
2019-03-19T07:20:35.168Z,95.62
2019-03-19T07:21:35.158Z,95.62
2019-03-19T07:22:35.185Z,101.25
2019-03-19T07:23:35.136Z,106.88
2019-03-19T07:24:35.144Z,112.50
2019-03-19T07:25:35.119Z,118.12
2019-03-19T07:26:35.103Z,123.75
2019-03-19T07:27:35.109Z,129.38
2019-03-19T07:28:35.104Z,129.38
2019-03-19T07:29:35.071Z,129.38
2019-03-19T07:30:35.061Z,135.00
2019-03-19T07:31:35.051Z,135.00
2019-03-19T07:32:35.065Z,140.62
2019-03-19T07:33:35.049Z,146.25
2019-03-19T07:34:35.016Z,146.25
2019-03-19T07:35:35.014Z,146.25
2019-03-19T07:36:35.002Z,146.25
2019-03-19T07:37:34.993Z,146.25
2019-03-19T07:38:35.039Z,146.25
2019-03-19T07:39:34.966Z,151.88
2019-03-19T07:40:34.951Z,151.88
2019-03-19T07:41:34.952Z,151.88
2019-03-19T07:42:34.952Z,151.88
2019-03-19T07:43:34.943Z,146.25
2019-03-19T07:44:34.931Z,146.25
2019-03-19T07:45:34.924Z,146.25
2019-03-19T07:46:34.903Z,146.25
2019-03-19T07:47:34.884Z,146.25
2019-03-19T07:48:34.887Z,146.25
2019-03-19T07:49:34.860Z,146.25
2019-03-19T07:50:34.852Z,146.25
2019-03-19T07:51:34.848Z,146.25
2019-03-19T07:52:34.832Z,151.88
2019-03-19T07:53:34.833Z,151.88
2019-03-19T07:54:34.828Z,151.88
2019-03-19T07:55:34.792Z,151.88
2019-03-19T07:56:34.787Z,146.25
2019-03-19T07:57:34.774Z,146.25
2019-03-19T07:58:44.832Z,129.38
2019-03-19T07:59:35.752Z,140.62
2019-03-19T08:00:34.744Z,135.00
2019-03-19T08:01:34.733Z,129.38
2019-03-19T08:02:34.717Z,140.62
2019-03-19T08:03:34.733Z,135.00
2019-03-19T08:04:34.705Z,135.00
2019-03-19T08:05:34.687Z,135.00
2019-03-19T08:06:34.684Z,135.00
2019-03-19T08:07:34.663Z,129.38
2019-03-19T08:08:34.673Z,129.38
2019-03-19T08:09:34.725Z,118.12
2019-03-19T08:10:34.631Z,135.00
2019-03-19T08:11:34.622Z,129.38
2019-03-19T08:12:34.627Z,90.00
2019-03-19T08:13:34.621Z,106.88
2019-03-19T08:14:34.596Z,106.88
2019-03-19T08:15:34.584Z,106.88
2019-03-19T08:16:34.567Z,112.50
2019-03-19T08:17:34.564Z,118.12
2019-03-19T08:18:36.195Z,123.75
2019-03-19T08:19:34.537Z,123.75
2019-03-19T08:20:34.525Z,123.75
2019-03-19T08:21:34.536Z,129.38
2019-03-19T08:22:34.507Z,135.00
2019-03-19T08:23:34.515Z,140.62
2019-03-19T08:24:34.502Z,140.62
2019-03-19T08:25:34.482Z,146.25
2019-03-19T08:26:34.466Z,151.88
2019-03-19T08:27:34.455Z,157.50
2019-03-19T08:28:34.485Z,157.50
2019-03-19T08:29:34.766Z,157.50
2019-03-19T08:30:34.424Z,163.12
2019-03-19T08:31:34.415Z,163.12
2019-03-19T08:32:34.407Z,163.12
2019-03-19T08:33:34.423Z,163.12
2019-03-19T08:34:36.256Z,163.12
2019-03-19T08:35:34.381Z,163.12
2019-03-19T08:36:34.395Z,168.75
2019-03-19T08:37:34.351Z,168.75
2019-03-19T08:38:34.363Z,174.38
2019-03-19T08:39:36.498Z,180.00
2019-03-19T08:40:34.322Z,180.00
2019-03-19T08:41:34.320Z,185.62
2019-03-19T08:42:34.306Z,191.25
2019-03-19T08:43:34.310Z,196.88
2019-03-19T08:44:34.280Z,202.50
2019-03-19T08:45:34.271Z,208.12
2019-03-19T08:46:34.259Z,219.38
2019-03-19T08:47:34.250Z,230.62
2019-03-19T08:48:34.262Z,236.25
2019-03-19T08:49:34.240Z,241.88
2019-03-19T08:50:34.215Z,253.12
2019-03-19T08:51:34.207Z,382.50
2019-03-19T08:52:34.248Z,669.38
2019-03-19T08:53:34.182Z,838.12
2019-03-19T08:54:34.194Z,781.88
2019-03-19T08:55:34.162Z,675.00
2019-03-19T08:56:34.151Z,759.38
2019-03-19T08:57:34.149Z,911.25
2019-03-19T08:58:34.139Z,1080.00
2019-03-19T08:59:34.142Z,1040.62
2019-03-19T09:00:34.108Z,1068.75
2019-03-19T09:01:34.094Z,1288.12
2019-03-19T09:02:34.092Z,1383.75
2019-03-19T09:03:34.071Z,1344.38
2019-03-19T09:04:34.085Z,1333.12
2019-03-19T09:05:34.048Z,1395.00
2019-03-19T09:06:34.050Z,1378.12
2019-03-19T09:07:34.036Z,1327.50
2019-03-19T09:08:34.044Z,1406.25
2019-03-19T09:09:34.031Z,1445.62
2019-03-19T09:10:34.009Z,1513.12
2019-03-19T09:11:33.985Z,1501.88
2019-03-19T09:12:33.990Z,1518.75
2019-03-19T09:13:33.961Z,1513.12
2019-03-19T09:14:33.970Z,1490.62
2019-03-19T09:15:33.939Z,1530.00
2019-03-19T09:16:33.929Z,1490.62
2019-03-19T09:17:33.916Z,1462.50
2019-03-19T09:18:33.928Z,1513.12
2019-03-19T09:19:33.918Z,1479.38
2019-03-19T09:20:33.894Z,1518.75
2019-03-19T09:21:33.874Z,1569.38
2019-03-19T09:22:33.863Z,1417.50
2019-03-19T09:23:33.852Z,1400.62
2019-03-19T09:24:33.862Z,1490.62
2019-03-19T09:25:33.829Z,1501.88
2019-03-19T09:26:33.839Z,1496.25
2019-03-19T09:27:33.813Z,1546.88
2019-03-19T09:28:33.799Z,1614.38
2019-03-19T09:29:33.811Z,1704.38
2019-03-19T09:30:33.779Z,1636.88
2019-03-19T09:31:33.766Z,1552.50
2019-03-19T09:32:33.766Z,1648.12
2019-03-19T09:33:33.745Z,1670.62
2019-03-19T09:34:33.765Z,1586.25
2019-03-19T09:35:33.724Z,1530.00
2019-03-19T09:36:33.721Z,1597.50
2019-03-19T09:37:33.702Z,1591.88
2019-03-19T09:38:33.706Z,1710.00
2019-03-19T09:39:33.706Z,1771.88
2019-03-19T09:40:33.671Z,1766.25
2019-03-19T09:41:33.659Z,1805.62
2019-03-19T09:42:33.654Z,1794.38
2019-03-19T09:43:33.640Z,1805.62
2019-03-19T09:44:33.658Z,1828.12
2019-03-19T09:45:33.619Z,1715.62
2019-03-19T09:46:33.606Z,1659.38
2019-03-19T09:47:33.594Z,1614.38
2019-03-19T09:48:33.593Z,1771.88
2019-03-19T09:49:33.595Z,1710.00
2019-03-19T09:50:33.581Z,1614.38
2019-03-19T09:51:33.555Z,1670.62
2019-03-19T09:52:33.542Z,1693.12
2019-03-19T09:53:33.533Z,1603.12
2019-03-19T09:54:33.540Z,1698.75
2019-03-19T09:55:33.512Z,1738.12
2019-03-19T09:56:33.549Z,1642.50
2019-03-19T09:57:33.490Z,1620.00
2019-03-19T09:58:33.480Z,1726.88
2019-03-19T09:59:33.489Z,1850.62
2019-03-19T10:00:33.466Z,1783.12
2019-03-19T10:01:33.448Z,1788.75
2019-03-19T10:02:33.454Z,1805.62
2019-03-19T10:03:33.427Z,1788.75
2019-03-19T10:04:33.435Z,1861.88
2019-03-19T10:05:33.406Z,1861.88
2019-03-19T10:06:33.401Z,1890.00
2019-03-19T10:07:33.384Z,1935.00
2019-03-19T10:08:33.375Z,1811.25
2019-03-19T10:09:33.391Z,1710.00
2019-03-19T10:10:33.437Z,1653.75
2019-03-19T10:11:33.342Z,1766.25
2019-03-19T10:12:33.337Z,1856.25
2019-03-19T10:13:33.377Z,1828.12
2019-03-19T10:14:33.332Z,1884.38
2019-03-19T10:15:33.304Z,1811.25
2019-03-19T10:16:33.342Z,1760.62
2019-03-19T10:17:33.289Z,1580.62
2019-03-19T10:18:33.274Z,1653.75
2019-03-19T10:19:33.333Z,1906.88
2019-03-19T10:20:33.250Z,1929.38
2019-03-19T10:21:33.247Z,2013.75
2019-03-19T10:22:33.236Z,1923.75
2019-03-19T10:23:33.272Z,1839.38
2019-03-19T10:24:33.227Z,1828.12
2019-03-19T10:25:33.201Z,1884.38
2019-03-19T10:26:33.197Z,1788.75
2019-03-19T10:27:33.189Z,1923.75
2019-03-19T10:28:33.170Z,2030.62
2019-03-19T10:29:38.131Z,2047.50
2019-03-19T10:30:34.151Z,2064.38
2019-03-19T10:31:33.138Z,1946.25
2019-03-19T10:32:33.126Z,1715.62
2019-03-19T10:33:33.117Z,1816.88
2019-03-19T10:34:33.165Z,1850.62
2019-03-19T10:35:33.095Z,1890.00
2019-03-19T10:36:33.084Z,1946.25
2019-03-19T10:37:33.074Z,1676.25
2019-03-19T10:38:33.065Z,1890.00
2019-03-19T10:39:33.095Z,2002.50
2019-03-19T10:40:33.052Z,1957.50
2019-03-19T10:41:33.031Z,1777.50
2019-03-19T10:42:33.025Z,1738.12
2019-03-19T10:43:33.010Z,1901.25
2019-03-19T10:44:33.001Z,1974.38
2019-03-19T10:45:33.012Z,1822.50
2019-03-19T10:46:33.003Z,1541.25
2019-03-19T10:47:32.970Z,984.38
2019-03-19T10:48:32.961Z,787.50
2019-03-19T10:49:32.955Z,714.38
2019-03-19T10:50:32.967Z,697.50
2019-03-19T10:51:35.103Z,697.50
2019-03-19T10:52:32.918Z,680.62
2019-03-19T10:53:32.926Z,686.25
2019-03-19T10:54:32.899Z,669.38
2019-03-19T10:55:32.905Z,663.75
2019-03-19T10:56:32.877Z,669.38
2019-03-19T10:57:32.873Z,675.00
2019-03-19T10:58:32.856Z,697.50
2019-03-19T10:59:32.858Z,714.38
2019-03-19T11:00:32.860Z,714.38
2019-03-19T11:01:32.915Z,725.62
2019-03-19T11:02:32.816Z,708.75
2019-03-19T11:03:32.806Z,725.62
2019-03-19T11:04:32.808Z,720.00
2019-03-19T11:05:32.804Z,708.75
2019-03-19T11:06:32.775Z,708.75
2019-03-19T11:07:32.792Z,742.50
2019-03-19T11:08:32.755Z,798.75
2019-03-19T11:09:32.747Z,855.00
2019-03-19T11:10:32.753Z,860.62
2019-03-19T11:11:32.727Z,950.62
2019-03-19T11:12:32.724Z,990.00
2019-03-19T11:13:32.704Z,1935.00
2019-03-19T11:14:32.694Z,2036.25
2019-03-19T11:15:32.763Z,2064.38
2019-03-19T11:16:32.673Z,2115.00
2019-03-19T11:17:32.664Z,2131.88
2019-03-19T11:18:32.661Z,1726.88
2019-03-19T11:19:32.646Z,1378.12
2019-03-19T11:20:32.654Z,2019.38
2019-03-19T11:21:32.624Z,2008.12
2019-03-19T11:22:33.606Z,1901.25
2019-03-19T11:23:32.602Z,1783.12
2019-03-19T11:24:32.605Z,1963.12
2019-03-19T11:25:32.610Z,2143.12
2019-03-19T11:26:32.581Z,2064.38
2019-03-19T11:27:32.564Z,2182.50
2019-03-19T11:28:32.557Z,2131.88
2019-03-19T11:29:32.546Z,1929.38
2019-03-19T11:30:32.561Z,1828.12
2019-03-19T11:31:32.524Z,2041.88
2019-03-19T11:32:32.511Z,2109.38
2019-03-19T11:33:32.503Z,1929.38
2019-03-19T11:34:32.502Z,1738.12
2019-03-19T11:35:32.501Z,1732.50
2019-03-19T11:36:32.489Z,1946.25
2019-03-19T11:37:32.466Z,2120.62
2019-03-19T11:38:32.458Z,2120.62
2019-03-19T11:39:32.445Z,2148.75
2019-03-19T11:40:32.477Z,2064.38
2019-03-19T11:41:32.422Z,1974.38
2019-03-19T11:42:32.411Z,2058.75
2019-03-19T11:43:32.419Z,2058.75
2019-03-19T11:44:32.392Z,2070.00
2019-03-19T11:45:32.404Z,1985.62
2019-03-19T11:46:32.370Z,2058.75
2019-03-19T11:47:32.370Z,2025.00
2019-03-19T11:48:32.352Z,1800.00
2019-03-19T11:49:32.340Z,1766.25
2019-03-19T11:50:33.524Z,2008.12
2019-03-19T11:51:32.327Z,2126.25
2019-03-19T11:52:32.322Z,2098.12
2019-03-19T11:53:32.301Z,2075.62
2019-03-19T11:54:32.289Z,2115.00
2019-03-19T11:55:32.329Z,2182.50
2019-03-19T11:56:32.269Z,2109.38
2019-03-19T11:57:32.262Z,2126.25
2019-03-19T11:58:32.271Z,2205.00
2019-03-19T11:59:32.239Z,2210.62
2019-03-19T12:00:32.230Z,2086.88
2019-03-19T12:01:32.238Z,2120.62
2019-03-19T12:02:32.228Z,2165.62
2019-03-19T12:03:32.201Z,2126.25
2019-03-19T12:04:32.193Z,2058.75
2019-03-19T12:05:32.195Z,2025.00
2019-03-19T12:06:32.185Z,1996.88
2019-03-19T12:07:32.158Z,2126.25
2019-03-19T12:08:32.147Z,2216.25
2019-03-19T12:09:32.135Z,2278.12
2019-03-19T12:10:32.126Z,2238.75
2019-03-19T12:11:32.157Z,2182.50
2019-03-19T12:12:32.105Z,2160.00
2019-03-19T12:13:32.095Z,2103.75
2019-03-19T12:14:32.092Z,2047.50
2019-03-19T12:15:32.074Z,1597.50
2019-03-19T12:16:32.089Z,1895.62
2019-03-19T12:17:32.063Z,2081.25
2019-03-19T12:18:32.050Z,1366.88
2019-03-19T12:19:32.036Z,1991.25
2019-03-19T12:20:32.023Z,2030.62
2019-03-19T12:21:32.031Z,2137.50
2019-03-19T12:22:32.005Z,2002.50
2019-03-19T12:23:31.999Z,2041.88
2019-03-19T12:24:32.839Z,2058.75
2019-03-19T12:25:31.972Z,2131.88
2019-03-19T12:26:31.980Z,2244.38
2019-03-19T12:27:31.957Z,2193.75
2019-03-19T12:28:39.546Z,2154.38
2019-03-19T12:29:32.953Z,1816.88
2019-03-19T12:30:31.919Z,1771.88
2019-03-19T12:31:31.929Z,1912.50
2019-03-19T12:32:31.923Z,1355.62
2019-03-19T12:33:40.517Z,686.25
2019-03-19T12:34:32.881Z,511.88
2019-03-19T12:35:31.899Z,478.12
2019-03-19T12:36:31.878Z,466.88
2019-03-19T12:37:31.854Z,444.38
2019-03-19T12:38:31.853Z,433.12
2019-03-19T12:39:31.828Z,421.88
2019-03-19T12:40:36.761Z,410.62
2019-03-19T12:41:32.828Z,405.00
2019-03-19T12:42:31.803Z,393.75
2019-03-19T12:43:31.786Z,388.12
2019-03-19T12:44:31.781Z,376.88
2019-03-19T12:45:31.781Z,376.88
2019-03-19T12:46:31.774Z,365.62
2019-03-19T12:47:31.742Z,360.00